Nana Boakye

Chefscout - Asante Kotoko
8 Okt 2028
Sonntag
Verarbeitung

Persönlichkeit

Anpassungsfähigkeit (7) Ehrgeiz (6) Kontroverse (8) Loyalität (16) Druck (5) Professionalität (14) Fairness (9) Temperament (10)

Profil

Trainerstil Demokratisch
Lizenz Kontinentale C
Entschlossenheit 4
Menschenführung 6
Motivation 7
Disziplin 8
Arbeitszufriedenheit
100%
Ermüdung
0%
Rolle Chefscout
Gehalt 26.0K p/W
Vertrag 14.03.2030

Leistung

Verhalten Gut
Trainingseffektivität
46%
Spielerentwicklung
15%
Verletzungsprävention
20%
Taktische Umsetzung
55%

Letzte Ereignisse

Nahm an einer Scouting-Besprechung teil jetzt
Nahm an einer Scouting-Besprechung teil jetzt
Nahm an einer Scouting-Besprechung teil jetzt
Empfahl ein Transferziel jetzt
Spieler begutachtet jetzt
Spieler begutachtet jetzt
Spieler begutachtet jetzt
Spiel beobachtet 7T her

Aktuell beobachtet

128
Spieler Verein Status Fähigkeit Vertrauen Beobachtet Zuletzt beobachtet Letzte Stimme
Tomás Ferreyra Defensores Unidos Aktiv 127 / 126 40% 2 06.10.2028 -
Martín García Atlanta Aktiv 97 / 100 40% 1 06.10.2028 -
Tayvon Gray New York City Aktiv 124 / 121 40% 1 05.10.2028 -
Franco Hanashiro Colegiales Aktiv 111 / 105 40% 1 05.10.2028 -
Hervin Goyes Deportivo Pasto Aktiv 114 / 101 40% 1 04.10.2028 -
Diego Arroyo Nueva Chicago Aktiv 94 / 114 40% 1 04.10.2028 -
Babis Kostoulas Oxford United Aktiv 150 / 142 40% 2 29.08.2028 -
Lautaro Díaz San Martín Verhandlung 80 / 87 40% 1 29.08.2028 -
Joe Belmont Brighton Aktiv 99 / 102 40% 1 28.08.2028 -
Stephen Humphrys Bradford City Aktiv 128 / 109 40% 1 05.07.2028 -
Kwame Kudus Wa All Stars Aktiv 76 / 89 58% 1 01.06.2028 Befürworten
Isaiah Jones Luton Town Aktiv 129 / 128 40% 1 31.05.2028 -
Liam Thompson Mansfield Town Aktiv 132 / 118 40% 1 31.01.2028 -
Bafodé Diakité Plymouth Argyle Aktiv 155 / 150 40% 1 25.01.2028 -
Selasie Bakai Great Olympics Aktiv 91 / 90 58% 1 24.01.2028 -
Ryoya Morishita Blackburn Rovers Aktiv 121 / 117 40% 1 01.01.2028 -
Antony Alonso Deportivo Riestra Verhandlung 136 / 132 40% 1 31.12.2027 -
Danilo Veiga Lecce Aktiv 144 / 139 40% 1 12.08.2027 -
Ishmael Addo Heart of Lions Aktiv 99 / 101 55% 1 09.08.2027 Beobachten
Malik Mothersille Stockport County Aktiv 108 / 129 40% 2 29.06.2027 -
Josh Coburn Millwall Aktiv 135 / 129 40% 1 29.06.2027 -
Charlie Webster Burton Albion Aktiv 102 / 125 40% 1 31.05.2027 -
Dylan Levitt Leyton Orient Aktiv 116 / 122 40% 1 29.05.2027 -
Lloyd Jones Charlton Athletic Aktiv 132 / 119 40% 1 26.05.2027 -
Charlie Goode Exeter City Aktiv 96 / 111 40% 1 26.05.2027 -
Deano Van Rooyen SuperSport United Aktiv 117 / 115 40% 4 25.05.2027 -
Idris El Mizouni Leyton Orient Aktiv 121 / 106 40% 1 25.05.2027 -
Connor Barrett Walsall Aktiv 120 / 95 40% 1 24.05.2027 -
Richard Koné Queens Park Rangers Aktiv 137 / 123 40% 1 23.05.2027 -
Jack Currie Oxford United Aktiv 133 / 115 40% 1 23.05.2027 -
Tariq Lamptey Queens Park Rangers Aktiv 135 / 132 40% 2 22.05.2027 -
Darragh Burns Grimsby Town Aktiv 108 / 111 40% 1 21.05.2027 -
Marcus Ifill Crewe Alexandra Aktiv 111 / 101 40% 1 19.05.2027 -
Dennis Cirkin Queens Park Rangers Aktiv 111 / 134 40% 1 19.05.2027 -
Nicolas Madsen Queens Park Rangers Aktiv 143 / 123 40% 1 19.05.2027 -
Radinio Balker Huddersfield Town Aktiv 115 / 111 40% 1 16.05.2027 -
Harvey Knibbs Charlton Athletic Aktiv 103 / 104 40% 1 16.05.2027 -
Daniel Kyerewaa Reading Aktiv 120 / 103 40% 1 16.05.2027 -
Luca Connell Barnsley Aktiv 106 / 114 40% 2 13.05.2027 -
Femi Seriki Sheffield United Aktiv 120 / 137 40% 1 13.05.2027 -
Teboho Mokoena Mamelodi Sundowns Aktiv 122 / 124 40% 7 10.05.2027 -
Georgie Gent Barnsley Aktiv 103 / 125 40% 1 06.05.2027 -
Brooklyn Poggenpoel Maritzburg United Aktiv 124 / 97 40% 5 03.05.2027 -
Fawaaz Basadien Mamelodi Sundowns Aktiv 118 / 109 40% 2 01.05.2027 -
Billy Gilmour Napoli Aktiv 144 / 158 40% 2 30.04.2027 -
Charlie Gray Fleetwood Town Aktiv 101 / 87 40% 1 30.04.2027 -
Basil Mphahlele Jomo Cosmos Aktiv 107 / 101 40% 3 29.04.2027 -
Velemseni Ndwandwe Golden Arrows Aktiv 106 / 105 40% 5 28.04.2027 -
Bradley Zwane SuperSport United Aktiv 125 / 128 40% 2 26.04.2027 -
Lebogang Manyama SuperSport United Aktiv 97 / 102 40% 6 24.04.2027 -
Bongani Zungu Ajax Cape Town Aktiv 137 / 117 40% 2 22.04.2027 Mehr Infos nötig
Pablo García Gijón Aktiv 93 / 117 40% 1 22.04.2027 -
Matteo Lovato Padova Aktiv 118 / 136 40% 1 20.04.2027 -
David Moreira Sporting CP Aktiv 104 / 116 40% 1 16.04.2027 -
Richard Boadu Medeama Aktiv 116 / 105 40% 1 15.04.2027 -
Thalente Mbatha Orlando Pirates Aktiv 121 / 109 40% 2 12.04.2027 -
Thierry Rendall Correia Venezia Aktiv 158 / 144 40% 1 12.04.2027 -
Khuliso Mudau Mamelodi Sundowns Aktiv 134 / 123 40% 1 11.04.2027 -
Emmanuel Ntim Hearts of Oak Aktiv 117 / 98 40% 1 11.04.2027 -
Leeroy Owusu Hearts of Oak Aktiv 108 / 117 40% 2 09.04.2027 -
Isaac Hemans Ashanti Gold Aktiv 105 / 103 40% 2 08.04.2027 -
Patrick Maswanganyi Orlando Pirates Aktiv 102 / 110 40% 1 08.04.2027 -
Nicolas Moumi Ngamaleu Pafos Aktiv 145 / 123 40% 1 06.04.2027 -
Antonio Galeano Remo Stars Aktiv 133 / 118 40% 2 02.04.2027 -
Hlompho Williams SuperSport United Aktiv 113 / 98 40% 2 02.04.2027 -
Anthony Uzodimma Bloemfontein Celtic Aktiv 106 / 101 40% 1 02.04.2027 -
Lungelo Dube Golden Arrows Aktiv 83 / 91 40% 2 26.03.2027 -
JP Iseppe Birkirkara Aktiv 98 / 95 40% 1 26.03.2027 -
Siphamandla Ncanana Maritzburg United Aktiv 115 / 105 40% 1 26.03.2027 -
Asanele Velebayi Kaizer Chiefs Aktiv 95 / 103 40% 3 24.03.2027 -
Luther Hlatshwayo Ajax Cape Town Aktiv 110 / 111 40% 1 22.03.2027 -
Will Hughes Bloemfontein Celtic Aktiv 120 / 122 40% 4 20.03.2027 -
Simphiwe Selepe Orlando Pirates Aktiv 120 / 113 40% 1 18.03.2027 -
Jordan Lotomba Bloemfontein Celtic Aktiv 140 / 120 40% 2 17.03.2027 -
Azola Matrose Chippa United Aktiv 93 / 92 40% 2 16.03.2027 -
Ronaldo Maarman University of Pretoria Aktiv 115 / 107 40% 1 16.03.2027 -
Kagiso Malinga Jomo Cosmos Aktiv 89 / 91 40% 2 14.03.2027 -
Siphosakhe Ntiya-Ntiya Free State Stars Aktiv 101 / 105 40% 1 10.03.2027 -
Bathusi Aubaas Mamelodi Sundowns Aktiv 104 / 121 40% 5 08.03.2027 -
Khama Dolly Black Aces Aktiv 106 / 104 40% 1 08.03.2027 -
Marcelo Allende Mamelodi Sundowns Aktiv 138 / 118 40% 4 06.03.2027 -
Andre de Jong Orlando Pirates Aktiv 124 / 114 40% 1 06.03.2027 -
Thabiso Monyane Kaizer Chiefs Aktiv 98 / 102 40% 2 04.03.2027 -
Haashim Domingo Maritzburg United Aktiv 116 / 104 40% 1 02.03.2027 -
Themba Mantshiyane Golden Arrows Aktiv 95 / 103 40% 1 02.03.2027 -
Themba Lorch Platinum Stars Aktiv 84 / 92 40% 1 27.02.2027 -
Ayanda Jiyane Golden Arrows Aktiv 117 / 95 40% 2 24.02.2027 -
Charleston Hibernians Aktiv 90 / 93 40% 1 23.02.2027 -
Malebogo Modise Polokwane City Aktiv 120 / 105 40% 1 22.02.2027 -
Oswin Appollis Orlando Pirates Aktiv 140 / 120 40% 1 21.02.2027 -
Thulani Mabaso Platinum Stars Aktiv 107 / 106 40% 3 19.02.2027 -
Iker Pozo Rodina Aktiv 112 / 117 40% 1 10.02.2027 -
Nkosinathi Sibisi Orlando Pirates Aktiv 103 / 118 40% 1 07.02.2027 -
Ipalibo Jack Hamrun Spartans Aktiv 106 / 93 40% 1 18.01.2027 -
Harvey Vale Queens Park Rangers Aktiv 132 / 115 40% 1 31.12.2026 -
Uroš Đuranović Sliema Wanderers Aktiv 90 / 88 40% 1 30.12.2026 -
Goodman Mosele Chippa United Aktiv 113 / 115 40% 2 26.12.2026 -
Siphelo Baloni Free State Stars Aktiv 109 / 97 40% 1 24.12.2026 -
Mandla Kekana Ajax Cape Town Aktiv 122 / 112 40% 1 24.12.2026 -
Thabo Nodada Maritzburg United Aktiv 113 / 92 40% 2 23.12.2026 -
Happy Mashiane Chippa United Aktiv 122 / 90 40% 1 22.12.2026 -
Themba Dala Black Aces Aktiv 94 / 110 40% 1 21.12.2026 -
Sibongiseni Mthethwa Kaizer Chiefs Aktiv 126 / 113 40% 1 19.12.2026 -
Tlou Nkwe Polokwane City Aktiv 94 / 105 40% 1 11.12.2026 -
Nkosingiphile Ngcobo Kaizer Chiefs Aktiv 103 / 106 40% 2 10.12.2026 -
Ilmari Niskanen Paksi Aktiv 90 / 97 40% 1 09.12.2026 -
Federico Martínez MFK Ruzomberok Aktiv 114 / 120 40% 1 09.12.2026 -
Teboho Tlolane Golden Arrows Aktiv 91 / 105 40% 2 07.12.2026 -
Mpho Chabatsane Orlando Pirates Aktiv 112 / 96 40% 1 05.12.2026 -
Paul Glatzel Swindon Town Aktiv 77 / 83 40% 1 30.11.2026 -
Suleiman Camara Slovan Bratislava Aktiv 106 / 115 40% 1 30.11.2026 -
Morgan Billiat SuperSport United Aktiv 107 / 123 40% 1 24.11.2026 -
Simon Ramabu Polokwane City Aktiv 114 / 118 40% 1 22.11.2026 -
Romelle Donovan Brentford Aktiv 136 / 135 40% 1 20.11.2026 -
Lebogang Williams Black Aces Aktiv 97 / 100 40% 1 17.11.2026 -
Johan Bonilla Gzira United Aktiv 105 / 91 40% 1 15.11.2026 -
Lebohang Maboe Kaizer Chiefs Aktiv 112 / 119 40% 1 15.11.2026 -
Charles Vernam Grimsby Town Aktiv 88 / 106 40% 1 05.11.2026 -
Siphamandla Sabelo Bloemfontein Celtic Aktiv 74 / 89 40% 1 08.10.2026 -
Ethan Chislett Bidvest Wits Aktiv 78 / 100 40% 1 07.10.2026 -
Agu Kenechukwu Rangers International Aktiv 88 / 94 40% 1 15.09.2026 -
Josh Benson Rotherham United Aktiv 118 / 96 40% 1 11.09.2026 -
Siyanda Msani University of Pretoria Aktiv 97 / 92 40% 1 10.09.2026 -
George Broadbent Doncaster Rovers Aktiv 101 / 106 40% 1 10.09.2026 -
Denver Hume Fleetwood Town Aktiv 98 / 92 40% 1 09.09.2026 -
Daniel Msendami Orlando Pirates Aktiv 84 / 112 40% 1 08.09.2026 -
Henry Cartwright Sheffield United Aktiv 94 / 108 40% 1 07.09.2026 -
Yves Bissouma Tottenham Aktiv 126 / 146 40% 1 17.08.2026 -